Time;durP1;ratioP1;P1;durP2;ratioP2;P2;SDS_P1;SDS_P2;PMS_P1;PMS_P2;Temp;Humidity;BMP_temperature;BMP_pressure;BME280_temperature;BME280_humidity;BME280_pressure;Samples;Min_cycle;Max_cycle;Signal;HPM_P1;HPM_P2
2022/04/20 00:00:41;;;;;;;9.57;4.10;;;14.70;47.30;;;;;;5040181;28;20056;-62
2022/04/20 00:03:07;;;;;;;7.22;3.75;;;14.60;47.30;;;;;;5035150;28;20033;-62
2022/04/20 00:05:33;;;;;;;8.35;4.63;;;14.60;47.50;;;;;;5033973;28;20087;-62
2022/04/20 00:08:03;;;;;;;7.90;3.97;;;14.50;47.50;;;;;;5047830;28;20033;-62
2022/04/20 00:10:29;;;;;;;8.27;4.15;;;14.50;47.50;;;;;;5053266;28;20512;-62
2022/04/20 00:12:56;;;;;;;7.50;4.07;;;14.50;47.60;;;;;;5041552;28;20452;-62
2022/04/20 00:15:22;;;;;;;10.00;4.50;;;14.40;47.60;;;;;;5057957;28;20029;-61
2022/04/20 00:17:47;;;;;;;8.85;4.25;;;14.40;47.60;;;;;;5039426;28;20378;-62
2022/04/20 00:20:13;;;;;;;7.68;3.85;;;14.40;47.60;;;;;;5038059;28;20036;-62
2022/04/20 00:22:39;;;;;;;8.20;4.30;;;14.40;47.60;;;;;;5046132;28;20033;-62
2022/04/20 00:25:05;;;;;;;9.40;3.75;;;14.30;47.60;;;;;;5055973;28;20037;-62
2022/04/20 00:27:35;;;;;;;9.80;4.13;;;14.40;47.70;;;;;;5053200;28;20205;-61
2022/04/20 00:30:09;;;;;;;7.82;3.58;;;14.30;47.60;;;;;;5055515;28;20091;-62
2022/04/20 00:32:35;;;;;;;8.02;4.43;;;14.30;47.70;;;;;;5043000;28;20355;-61
2022/04/20 00:35:00;;;;;;;8.05;3.90;;;14.30;47.70;;;;;;5038426;28;20116;-62
2022/04/20 00:37:28;;;;;;;8.35;4.13;;;14.30;47.60;;;;;;5043575;28;20057;-61
2022/04/20 00:39:54;;;;;;;9.90;3.88;;;14.30;47.70;;;;;;5051524;28;20079;-62
2022/04/20 00:42:22;;;;;;;8.10;3.90;;;14.20;47.70;;;;;;5037944;28;20116;-62
2022/04/20 00:44:49;;;;;;;9.43;3.75;;;14.20;47.70;;;;;;5038062;28;20136;-62
2022/04/20 00:47:16;;;;;;;10.25;3.85;;;14.20;47.70;;;;;;5040170;28;20067;-63
2022/04/20 00:49:45;;;;;;;7.18;3.78;;;14.20;47.60;;;;;;5053785;28;20017;-62
2022/04/20 00:52:11;;;;;;;8.25;4.07;;;14.20;47.60;;;;;;5041582;28;20032;-62
2022/04/20 00:54:37;;;;;;;6.68;3.08;;;14.10;47.50;;;;;;5056951;28;20035;-61
2022/04/20 00:57:04;;;;;;;7.80;3.63;;;14.10;47.40;;;;;;5048127;28;20120;-62
2022/04/20 00:59:34;;;;;;;7.55;3.53;;;14.10;47.30;;;;;;5036733;28;20022;-61
2022/04/20 01:02:00;;;;;;;7.00;3.30;;;14.10;47.40;;;;;;5038928;28;20410;-61
2022/04/20 01:04:27;;;;;;;8.63;3.33;;;14.00;47.30;;;;;;5036916;28;20025;-62
2022/04/20 01:07:13;;;;;;;7.82;3.42;;;14.00;47.90;;;;;;5044550;28;20123;-61
2022/04/20 01:09:48;;;;;;;8.98;3.80;;;14.00;47.30;;;;;;5052471;28;20037;-61
2022/04/20 01:12:33;;;;;;;8.15;3.42;;;14.00;47.30;;;;;;5052795;28;20036;-61
2022/04/20 01:15:19;;;;;;;6.20;3.30;;;13.90;47.10;;;;;;5037247;28;20181;-62
2022/04/20 01:17:53;;;;;;;7.25;3.13;;;14.00;47.00;;;;;;5046530;28;20051;-61
2022/04/20 01:20:42;;;;;;;8.45;3.60;;;13.90;46.90;;;;;;5041377;28;20116;-61
2022/04/20 01:23:15;;;;;;;6.35;3.10;;;13.90;47.50;;;;;;5041710;28;20061;-62
2022/04/20 01:25:50;;;;;;;7.90;3.45;;;13.90;46.80;;;;;;5037523;28;20033;-61
2022/04/20 01:28:37;;;;;;;6.55;3.08;;;13.90;46.70;;;;;;5041173;28;20116;-61
2022/04/20 01:31:20;;;;;;;6.57;3.08;;;13.90;46.70;;;;;;5053296;28;20087;-62
2022/04/20 01:34:07;;;;;;;7.03;2.90;;;13.90;46.60;;;;;;5052108;28;20033;-61
2022/04/20 01:36:32;;;;;;;6.40;3.08;;;13.80;46.50;;;;;;5056428;28;20028;-62
2022/04/20 01:38:58;;;;;;;8.82;3.65;;;13.80;46.50;;;;;;5040127;28;20112;-62
2022/04/20 01:41:23;;;;;;;5.85;2.92;;;13.80;46.50;;;;;;5036674;28;20041;-61
2022/04/20 01:43:50;;;;;;;7.82;3.72;;;13.80;46.50;;;;;;5042594;28;20331;-62
2022/04/20 01:46:19;;;;;;;7.03;3.40;;;13.80;46.50;;;;;;5051379;28;20055;-61
2022/04/20 01:49:03;;;;;;;6.85;3.13;;;13.70;46.40;;;;;;5035673;28;20521;-61
2022/04/20 01:51:47;;;;;;;7.88;3.20;;;13.70;46.30;;;;;;5036948;28;20021;-62
2022/04/20 01:54:33;;;;;;;6.72;3.13;;;13.70;46.20;;;;;;5037784;28;20091;-62
2022/04/20 01:57:12;;;;;;;7.10;3.05;;;13.70;46.10;;;;;;5056064;28;20017;-61
2022/04/20 01:59:56;;;;;;;7.15;3.05;;;13.60;46.50;;;;;;5036987;28;20041;-62
2022/04/20 02:02:40;;;;;;;7.68;3.05;;;13.60;45.80;;;;;;5036284;28;20038;-61
2022/04/20 02:05:24;;;;;;;6.85;3.08;;;13.60;45.70;;;;;;5036914;28;20462;-62
2022/04/20 02:08:13;;;;;;;6.50;2.35;;;13.60;45.60;;;;;;5035703;28;20038;-61
2022/04/20 02:10:58;;;;;;;7.70;2.88;;;13.60;45.50;;;;;;5046029;28;20048;-61
2022/04/20 02:13:24;;;;;;;7.07;3.00;;;13.60;45.40;;;;;;5044148;28;20029;-61
2022/04/20 02:15:52;;;;;;;7.65;2.95;;;13.60;45.40;;;;;;5055546;28;20037;-62
2022/04/20 02:18:35;;;;;;;6.75;2.95;;;13.60;45.30;;;;;;5050511;28;20044;-62
2022/04/20 02:21:17;;;;;;;7.78;2.58;;;13.60;45.40;;;;;;5041060;28;20025;-62
2022/04/20 02:23:43;;;;;;;6.63;2.83;;;13.60;45.30;;;;;;5051395;28;20124;-61
2022/04/20 02:26:08;;;;;;;11.13;3.22;;;13.50;45.20;;;;;;5054882;28;20036;-62
2022/04/20 02:28:34;;;;;;;6.35;2.92;;;13.50;45.20;;;;;;5049492;28;21252;-62
2022/04/20 02:30:59;;;;;;;7.32;2.85;;;13.50;45.20;;;;;;5043392;28;20085;-62
2022/04/20 02:33:25;;;;;;;7.28;3.13;;;13.50;45.20;;;;;;5040222;28;20049;-62
2022/04/20 02:35:51;;;;;;;8.60;2.83;;;13.50;45.20;;;;;;5055897;28;20032;-62
2022/04/20 02:38:18;;;;;;;6.82;3.15;;;13.50;45.20;;;;;;5035881;28;20457;-61
2022/04/20 02:40:49;;;;;;;6.80;2.92;;;13.40;45.20;;;;;;5056051;28;20028;-62
2022/04/20 02:43:14;;;;;;;6.13;2.75;;;13.40;45.30;;;;;;5048236;28;20087;-61
2022/04/20 02:45:41;;;;;;;7.00;3.05;;;13.40;45.40;;;;;;5036873;28;20399;-61
2022/04/20 02:48:07;;;;;;;8.82;3.03;;;13.30;45.40;;;;;;5054955;28;20118;-62
2022/04/20 02:50:33;;;;;;;5.90;2.92;;;13.30;45.40;;;;;;5035141;28;20059;-62
2022/04/20 02:52:58;;;;;;;5.45;2.42;;;13.30;45.50;;;;;;5048342;28;20017;-62
2022/04/20 02:55:24;;;;;;;6.90;3.03;;;13.30;45.50;;;;;;5034511;28;20589;-62
2022/04/20 02:57:51;;;;;;;5.63;2.45;;;13.30;45.50;;;;;;5051538;28;20454;-61
2022/04/20 03:00:17;;;;;;;6.40;2.92;;;13.30;46.10;;;;;;5049993;28;20112;-61
2022/04/20 03:02:52;;;;;;;6.05;2.72;;;13.20;45.60;;;;;;5053320;28;20369;-61
2022/04/20 03:05:18;;;;;;;6.45;2.75;;;13.20;45.60;;;;;;5039052;28;20033;-61
2022/04/20 03:07:45;;;;;;;6.15;2.58;;;13.20;45.60;;;;;;5048546;28;20024;-61
2022/04/20 03:10:11;;;;;;;6.10;2.83;;;13.10;45.60;;;;;;5040142;28;20131;-62
2022/04/20 03:12:40;;;;;;;6.78;2.90;;;13.10;45.70;;;;;;5034352;28;20026;-62
2022/04/20 03:15:07;;;;;;;5.68;2.67;;;13.10;45.70;;;;;;5034118;28;20083;-61
2022/04/20 03:17:33;;;;;;;7.30;3.05;;;13.10;45.70;;;;;;5034313;28;20029;-62
2022/04/20 03:19:59;;;;;;;6.75;2.85;;;13.00;45.70;;;;;;5042886;28;20047;-62
2022/04/20 03:22:24;;;;;;;6.30;3.03;;;13.00;45.70;;;;;;5053860;28;20471;-62
2022/04/20 03:24:50;;;;;;;6.97;2.70;;;13.00;45.70;;;;;;5035336;28;20044;-62
2022/04/20 03:27:45;;;;;;;6.55;2.83;;;13.00;45.80;;;;;;5039095;28;20053;-62
2022/04/20 03:30:12;;;;;;;7.05;2.85;;;13.00;45.80;;;;;;5035811;28;20025;-62
2022/04/20 03:32:41;;;;;;;6.80;2.83;;;13.00;45.90;;;;;;5040382;28;20046;-62
2022/04/20 03:35:07;;;;;;;5.90;2.63;;;12.90;45.90;;;;;;5039490;28;20035;-61
2022/04/20 03:37:33;;;;;;;7.40;2.88;;;12.90;45.80;;;;;;5035354;28;20414;-62
2022/04/20 03:39:59;;;;;;;5.60;2.60;;;12.90;45.80;;;;;;5047830;28;20064;-62
2022/04/20 03:42:26;;;;;;;6.05;2.50;;;12.90;45.80;;;;;;5050703;28;20071;-61
2022/04/20 03:44:52;;;;;;;6.70;2.78;;;12.90;45.80;;;;;;5056644;28;20032;-61
2022/04/20 03:47:18;;;;;;;6.25;2.70;;;12.90;45.80;;;;;;5053414;28;20342;-61
2022/04/20 03:49:43;;;;;;;6.10;2.88;;;12.80;45.70;;;;;;5047275;28;20071;-62
2022/04/20 03:52:09;;;;;;;7.68;3.13;;;12.90;45.80;;;;;;5045888;28;20021;-61
2022/04/20 03:54:37;;;;;;;7.88;2.30;;;12.80;45.80;;;;;;5038113;28;20053;-61
2022/04/20 03:57:04;;;;;;;5.82;2.80;;;12.80;45.90;;;;;;5034618;28;20025;-62
2022/04/20 03:59:35;;;;;;;5.22;2.40;;;12.80;45.90;;;;;;5051807;28;20029;-61
2022/04/20 04:02:01;;;;;;;5.75;2.60;;;12.80;46.50;;;;;;5049315;28;20020;-61
2022/04/20 04:04:29;;;;;;;5.70;2.50;;;12.80;45.90;;;;;;5054820;28;20048;-61
2022/04/20 04:06:58;;;;;;;7.80;2.67;;;12.70;45.80;;;;;;5053936;28;20048;-61
2022/04/20 04:09:23;;;;;;;5.88;2.67;;;12.70;45.80;;;;;;5053068;28;20437;-61
2022/04/20 04:11:50;;;;;;;5.60;2.50;;;12.70;45.80;;;;;;5053467;28;20104;-62
2022/04/20 04:14:17;;;;;;;5.75;2.53;;;12.70;45.90;;;;;;5036440;28;20374;-61
2022/04/20 04:16:44;;;;;;;6.88;3.03;;;12.60;45.90;;;;;;5051785;28;20115;-61
2022/04/20 04:19:11;;;;;;;6.88;3.28;;;12.60;46.00;;;;;;5052566;28;20028;-62
2022/04/20 04:21:40;;;;;;;5.90;2.60;;;12.60;46.10;;;;;;5050102;28;20032;-61
2022/04/20 04:24:07;;;;;;;5.70;2.47;;;12.60;46.10;;;;;;5065857;28;20053;-61
2022/04/20 04:26:40;;;;;;;6.10;2.53;;;12.60;46.20;;;;;;5050993;28;20021;-62
2022/04/20 04:29:06;;;;;;;6.80;3.10;;;12.50;46.20;;;;;;5052944;28;20029;-62
2022/04/20 04:31:33;;;;;;;5.68;2.53;;;12.50;46.20;;;;;;5040677;28;20561;-62
2022/04/20 04:33:58;;;;;;;5.60;2.42;;;12.50;46.30;;;;;;5042633;28;20029;-62
2022/04/20 04:36:25;;;;;;;5.47;2.50;;;12.50;46.40;;;;;;5042810;28;20130;-62
2022/04/20 04:38:54;;;;;;;6.22;2.78;;;12.50;46.40;;;;;;5050691;28;20024;-62
2022/04/20 04:41:25;;;;;;;6.18;2.38;;;12.50;46.30;;;;;;5017821;28;20358;-62
2022/04/20 04:43:51;;;;;;;6.63;2.60;;;12.50;46.40;;;;;;5028814;28;20036;-63
2022/04/20 04:49:32;;;;;;;6.13;2.95;;;12.40;46.30;;;;;;5054597;28;20060;-63
2022/04/20 04:51:59;;;;;;;8.35;2.80;;;12.40;46.20;;;;;;5047322;28;20029;-63
2022/04/20 04:54:25;;;;;;;6.22;2.70;;;12.40;46.20;;;;;;5051256;28;20464;-61
2022/04/20 04:56:52;;;;;;;5.72;2.30;;;12.40;46.20;;;;;;5046770;28;20466;-61
2022/04/20 04:59:18;;;;;;;5.43;2.50;;;12.50;46.20;;;;;;5056818;28;20057;-62
2022/04/20 05:01:47;;;;;;;4.45;2.30;;;12.40;46.10;;;;;;5033656;28;20044;-62
2022/04/20 05:04:19;;;;;;;5.88;2.40;;;12.40;46.10;;;;;;5057540;28;20083;-61
2022/04/20 05:06:47;;;;;;;6.28;2.65;;;12.40;46.10;;;;;;5044595;28;20359;-62
2022/04/20 05:09:24;;;;;;;7.63;2.70;;;12.40;46.10;;;;;;5033630;28;20091;-62
2022/04/20 05:11:50;;;;;;;7.07;2.60;;;12.50;46.20;;;;;;5060417;28;20024;-62
2022/04/20 05:14:17;;;;;;;5.95;2.60;;;12.50;46.20;;;;;;5054678;28;20027;-62
2022/04/20 05:16:46;;;;;;;6.38;2.67;;;12.50;46.20;;;;;;5046851;28;20022;-61
2022/04/20 05:19:14;;;;;;;6.78;2.47;;;12.50;46.20;;;;;;5038411;28;20343;-62
2022/04/20 05:21:41;;;;;;;6.78;2.75;;;12.50;46.20;;;;;;5045301;28;20025;-62
2022/04/20 05:24:08;;;;;;;4.70;2.00;;;12.50;46.10;;;;;;5036600;28;20037;-62
2022/04/20 05:26:35;;;;;;;7.68;2.78;;;12.50;46.10;;;;;;5046079;28;20024;-62
2022/04/20 05:29:01;;;;;;;6.95;2.20;;;12.50;46.10;;;;;;5037031;28;20033;-61
2022/04/20 05:31:29;;;;;;;7.30;2.78;;;12.60;46.10;;;;;;5036247;28;20033;-62
2022/04/20 05:33:54;;;;;;;4.97;2.10;;;12.60;46.00;;;;;;5037527;28;20044;-62
2022/04/20 05:36:20;;;;;;;6.35;2.67;;;12.90;45.70;;;;;;5037424;28;20056;-62
2022/04/20 05:41:41;;;;;;;5.90;2.30;;;13.70;44.50;;;;;;5053240;28;20033;-63
2022/04/20 05:44:12;;;;;;;6.35;2.30;;;14.00;44.00;;;;;;5039574;28;20025;-63
2022/04/20 05:46:41;;;;;;;5.10;2.30;;;14.20;43.70;;;;;;5050921;28;20051;-63
2022/04/20 05:49:10;;;;;;;5.75;2.00;;;14.40;43.40;;;;;;5068596;28;20086;-64
2022/04/20 05:51:35;;;;;;;6.63;2.42;;;14.70;43.10;;;;;;5040523;28;20033;-64
2022/04/20 05:54:01;;;;;;;5.53;2.45;;;14.90;42.70;;;;;;5044724;28;20025;-65
2022/04/20 05:56:30;;;;;;;6.68;2.40;;;15.10;42.40;;;;;;5056057;28;20457;-65
2022/04/20 05:58:57;;;;;;;6.13;2.47;;;15.10;42.20;;;;;;5047420;28;20041;-65
2022/04/20 06:01:24;;;;;;;7.97;2.58;;;15.10;42.20;;;;;;5064574;28;20029;-64
2022/04/20 06:03:56;;;;;;;7.57;2.50;;;15.10;42.00;;;;;;5035280;28;20030;-65
2022/04/20 06:06:29;;;;;;;7.78;2.60;;;15.20;41.80;;;;;;5040320;28;20032;-64
2022/04/20 06:08:56;;;;;;;6.18;2.33;;;15.40;41.60;;;;;;5042621;28;20120;-64
2022/04/20 06:11:52;;;;;;;5.25;2.20;;;16.00;40.90;;;;;;5040620;28;20041;-64
2022/04/20 06:14:22;;;;;;;;;;;17.00;39.90;;;;;;5055658;28;20412;-65
2022/04/20 06:16:54;;;;;;;4.38;1.88;;;17.70;39.10;;;;;;5052661;28;19924;-64
2022/04/20 06:19:29;;;;;;;5.57;2.30;;;18.20;38.40;;;;;;5048856;28;20033;-64
2022/04/20 06:22:05;;;;;;;7.40;2.78;;;18.40;37.90;;;;;;5036220;28;20035;-65
2022/04/20 06:24:47;;;;;;;5.82;2.25;;;18.20;38.00;;;;;;5054793;28;20033;-65
2022/04/20 06:27:33;;;;;;;6.57;2.40;;;18.00;38.20;;;;;;5048400;28;20033;-64
2022/04/20 06:30:19;;;;;;;5.88;2.28;;;17.70;38.30;;;;;;5068696;28;20115;-64
2022/04/20 06:32:56;;;;;;;4.88;1.92;;;17.50;38.50;;;;;;5053443;28;20118;-67
2022/04/20 06:35:40;;;;;;;4.85;2.35;;;17.40;38.60;;;;;;5055324;28;20122;-64
2022/04/20 06:38:11;;;;;;;6.18;2.30;;;17.30;38.70;;;;;;5046904;28;20037;-63
2022/04/20 06:40:55;;;;;;;6.00;2.28;;;17.20;38.60;;;;;;5037652;28;20116;-63
2022/04/20 06:43:32;;;;;;;7.15;2.20;;;17.10;38.50;;;;;;5042072;28;20036;-63
2022/04/20 06:46:06;;;;;;;5.32;2.25;;;17.20;38.40;;;;;;5054532;28;20032;-64
2022/04/20 06:48:41;;;;;;;5.55;2.28;;;17.10;38.30;;;;;;5041023;28;20355;-63
2022/04/20 06:58:31;;;;;;;6.80;2.70;;;17.10;38.20;;;;;;5042838;28;20033;-65
2022/04/20 07:00:01;;;;;;;5.18;2.28;;;17.30;38.00;;;;;;5055493;28;20108;-64
2022/04/20 07:02:39;;;;;;;6.53;2.70;;;17.40;37.90;;;;;;5054747;28;20033;-64
2022/04/20 07:05:20;;;;;;;5.85;2.28;;;17.40;37.80;;;;;;5054166;28;20135;-64
2022/04/20 07:08:19;;;;;;;5.28;1.92;;;17.50;37.80;;;;;;5073467;28;20074;-64
2022/04/20 07:10:47;;;;;;;5.70;2.50;;;17.60;37.60;;;;;;5058606;28;20033;-64
2022/04/20 07:13:16;;;;;;;5.05;2.33;;;17.70;37.40;;;;;;5053481;28;20113;-64
2022/04/20 07:15:42;;;;;;;5.80;2.33;;;17.80;37.40;;;;;;5053117;28;20027;-64
2022/04/20 07:18:08;;;;;;;5.45;2.50;;;17.90;37.40;;;;;;5053804;28;20041;-65
2022/04/20 07:20:52;;;;;;;5.18;2.22;;;18.00;38.10;;;;;;5053816;28;20040;-64
2022/04/20 07:23:36;;;;;;;4.85;1.95;;;18.10;37.40;;;;;;5073494;28;20400;-64
2022/04/20 07:26:22;;;;;;;5.80;2.20;;;18.20;37.20;;;;;;5014427;28;20040;-64
2022/04/20 07:29:17;;;;;;;5.72;2.33;;;18.30;37.20;;;;;;5020392;28;20049;-64
2022/04/20 07:32:01;;;;;;;5.75;2.40;;;18.50;37.00;;;;;;5052843;28;20045;-64
2022/04/20 07:34:49;;;;;;;4.18;1.88;;;18.70;36.90;;;;;;5052530;28;20037;-64
2022/04/20 07:37:26;;;;;;;5.68;2.40;;;18.90;36.80;;;;;;5051032;28;20045;-65
2022/04/20 07:40:12;;;;;;;5.00;2.25;;;19.10;36.80;;;;;;5053301;28;20063;-64
2022/04/20 07:42:55;;;;;;;5.80;3.00;;;19.20;36.60;;;;;;5051322;28;20453;-64
2022/04/20 07:45:50;;;;;;;6.18;2.30;;;19.30;36.50;;;;;;5023379;28;20046;-64
2022/04/20 07:48:25;;;;;;;5.43;2.50;;;19.50;36.40;;;;;;5032205;28;20030;-64
2022/04/20 07:51:23;;;;;;;6.57;2.30;;;19.60;36.30;;;;;;5033320;28;20049;-64
2022/04/20 07:53:56;;;;;;;6.13;2.25;;;19.70;36.20;;;;;;5045634;28;20034;-64
2022/04/20 07:56:45;;;;;;;6.03;2.40;;;19.80;36.10;;;;;;5037702;28;20072;-64
2022/04/20 07:59:43;;;;;;;5.25;2.47;;;19.90;36.10;;;;;;5016140;28;20026;-64
2022/04/20 08:02:31;;;;;;;6.13;2.53;;;20.00;36.00;;;;;;5014414;28;20022;-64
2022/04/20 08:05:00;;;;;;;6.57;2.72;;;20.10;35.80;;;;;;5035873;28;20046;-64
2022/04/20 08:07:27;;;;;;;5.43;2.20;;;20.20;35.70;;;;;;5030780;28;20099;-64
2022/04/20 08:09:54;;;;;;;5.05;2.20;;;20.40;35.50;;;;;;5037199;28;20049;-65
2022/04/20 08:12:19;;;;;;;4.55;2.10;;;20.50;35.40;;;;;;5031996;28;20025;-64
2022/04/20 08:14:45;;;;;;;4.80;2.05;;;20.50;35.30;;;;;;5014930;28;20072;-65
2022/04/20 08:17:19;;;;;;;6.45;2.50;;;20.60;35.20;;;;;;5016848;28;20034;-65
2022/04/20 08:19:44;;;;;;;5.78;2.20;;;20.70;35.10;;;;;;5031398;28;20125;-66
2022/04/20 08:22:22;;;;;;;8.07;2.30;;;20.80;35.10;;;;;;5013998;28;20026;-66
2022/04/20 08:24:48;;;;;;;5.43;2.33;;;20.90;35.00;;;;;;5032213;28;20488;-66
2022/04/20 08:27:14;;;;;;;3.85;2.05;;;21.00;34.90;;;;;;5029133;28;20037;-66
2022/04/20 08:29:41;;;;;;;6.40;2.40;;;21.00;34.70;;;;;;5031607;28;20025;-65
2022/04/20 08:32:07;;;;;;;9.63;2.75;;;21.10;34.60;;;;;;5039846;28;20072;-65
2022/04/20 08:34:32;;;;;;;4.78;2.10;;;21.10;34.30;;;;;;5040051;28;20053;-64
2022/04/20 08:36:58;;;;;;;5.03;2.00;;;21.10;34.20;;;;;;5050769;28;20035;-65
2022/04/20 08:39:23;;;;;;;5.35;1.88;;;21.00;34.00;;;;;;5060460;28;20442;-65
2022/04/20 08:41:49;;;;;;;6.07;2.10;;;21.10;34.00;;;;;;5053266;28;20028;-64
2022/04/20 08:44:23;;;;;;;5.35;2.17;;;21.10;33.90;;;;;;5057389;28;20021;-67
2022/04/20 08:46:50;;;;;;;5.05;1.77;;;21.10;33.70;;;;;;5056650;28;20032;-66
2022/04/20 08:49:15;;;;;;;4.10;2.17;;;21.10;33.90;;;;;;5057728;28;20037;-65
2022/04/20 08:54:26;;;;;;;4.72;1.80;;;21.20;33.70;;;;;;5046875;28;20350;-65
2022/04/20 08:59:37;;;;;;;4.53;2.00;;;21.40;33.70;;;;;;5049484;28;20059;-65
2022/04/20 09:02:04;;;;;;;5.32;2.30;;;21.40;33.60;;;;;;5056485;28;20094;-65
2022/04/20 09:04:29;;;;;;;6.72;2.50;;;21.50;33.60;;;;;;5055532;28;20028;-65
2022/04/20 09:06:55;;;;;;;4.57;2.03;;;21.60;33.50;;;;;;5057200;28;20028;-64
2022/04/20 09:09:28;;;;;;;5.93;2.20;;;21.60;33.40;;;;;;5043320;28;20042;-64
2022/04/20 09:11:57;;;;;;;4.50;1.90;;;21.70;33.30;;;;;;5053608;28;20036;-64
2022/04/20 09:14:23;;;;;;;4.35;2.00;;;21.70;33.10;;;;;;5055411;28;20068;-64
2022/04/20 09:16:54;;;;;;;6.63;2.30;;;21.80;33.10;;;;;;5055033;28;20021;-64
2022/04/20 09:19:27;;;;;;;4.75;1.80;;;21.70;33.00;;;;;;5047797;28;20459;-64
2022/04/20 09:21:53;;;;;;;5.03;1.85;;;21.80;33.00;;;;;;5043904;28;20025;-64
2022/04/20 09:24:19;;;;;;;4.35;2.08;;;21.80;32.90;;;;;;5049426;28;20036;-64
2022/04/20 09:26:57;;;;;;;6.25;2.25;;;21.80;32.90;;;;;;5046687;28;20457;-64
2022/04/20 09:29:23;;;;;;;4.35;2.20;;;21.90;32.60;;;;;;5056786;28;20446;-65
2022/04/20 09:31:53;;;;;;;4.97;1.98;;;21.90;32.60;;;;;;5054507;28;20154;-64
2022/04/20 09:34:53;;;;;;;5.47;1.90;;;21.90;32.50;;;;;;5056372;28;20036;-63
2022/04/20 09:37:21;;;;;;;3.80;1.90;;;21.80;32.20;;;;;;5054968;28;20032;-64
2022/04/20 09:39:48;;;;;;;5.22;2.33;;;21.80;32.50;;;;;;5050674;28;20628;-64
2022/04/20 09:42:14;;;;;;;4.93;2.15;;;21.90;32.50;;;;;;5046817;28;20112;-64
2022/04/20 09:45:02;;;;;;;6.00;2.20;;;22.00;32.40;;;;;;5053394;28;20036;-65
2022/04/20 09:50:29;;;;;;;3.95;1.90;;;22.20;32.30;;;;;;5056663;28;20051;-64
2022/04/20 09:52:58;;;;;;;4.43;2.10;;;22.20;32.20;;;;;;5049188;28;20040;-63
2022/04/20 09:55:28;;;;;;;5.72;2.58;;;22.20;32.30;;;;;;5039721;28;20017;-62
2022/04/20 09:58:08;;;;;;;7.35;2.10;;;22.30;32.30;;;;;;5048621;28;20037;-64
2022/04/20 10:00:44;;;;;;;6.00;2.30;;;22.30;32.20;;;;;;5035603;28;20425;-63
2022/04/20 10:03:10;;;;;;;4.85;2.20;;;22.40;32.10;;;;;;5052134;28;20044;-64
2022/04/20 10:05:39;;;;;;;4.60;2.28;;;22.40;32.00;;;;;;5053572;28;20036;-63
2022/04/20 10:08:05;;;;;;;5.20;2.30;;;22.40;32.00;;;;;;5050163;28;20033;-63
2022/04/20 10:10:33;;;;;;;5.72;2.15;;;22.30;31.70;;;;;;5050220;28;20028;-63
2022/04/20 10:13:01;;;;;;;4.18;1.80;;;22.20;31.90;;;;;;5035922;28;20029;-63
2022/04/20 10:18:21;;;;;;;6.38;2.10;;;22.20;31.70;;;;;;5036262;28;20478;-64
2022/04/20 10:20:49;;;;;;;5.57;2.15;;;22.20;31.70;;;;;;5036780;28;20037;-64
2022/04/20 10:23:19;;;;;;;5.60;2.17;;;22.30;31.80;;;;;;5040227;28;20021;-64
2022/04/20 10:25:50;;;;;;;5.10;2.30;;;22.40;31.80;;;;;;5043521;28;20331;-65
2022/04/20 10:28:44;;;;;;;4.60;1.90;;;22.60;32.00;;;;;;5053041;28;20454;-64
2022/04/20 10:31:28;;;;;;;4.85;1.90;;;22.70;31.70;;;;;;5047522;28;20040;-64
2022/04/20 10:34:01;;;;;;;3.92;1.90;;;22.70;31.70;;;;;;5064646;28;20405;-65
2022/04/20 10:36:40;;;;;;;5.60;2.10;;;22.70;31.60;;;;;;5054410;28;20021;-65
2022/04/20 10:39:23;;;;;;;5.25;1.92;;;22.70;31.70;;;;;;5052691;28;20146;-65
2022/04/20 10:42:13;;;;;;;4.47;1.80;;;22.80;31.60;;;;;;5045030;28;20527;-65
2022/04/20 10:44:48;;;;;;;;;;;22.80;31.50;;;;;;5054319;28;20037;-65
2022/04/20 10:47:28;;;;;;;6.95;2.65;;;22.70;31.70;;;;;;5054095;28;19909;-65
2022/04/20 10:50:12;;;;;;;4.87;2.10;;;22.60;31.70;;;;;;5044485;28;20033;-64
2022/04/20 10:52:46;;;;;;;6.18;2.40;;;22.60;31.50;;;;;;5051664;28;20276;-65
2022/04/20 10:55:12;;;;;;;4.40;1.90;;;22.50;31.60;;;;;;5068061;28;20029;-65
2022/04/20 10:57:40;;;;;;;4.53;2.08;;;22.60;31.60;;;;;;5047895;28;20074;-65
2022/04/20 11:00:25;;;;;;;5.15;2.50;;;22.50;31.60;;;;;;5035402;28;20029;-63
2022/04/20 11:02:52;;;;;;;5.72;2.45;;;22.70;31.70;;;;;;5048314;28;20059;-64
2022/04/20 11:05:22;;;;;;;5.85;2.10;;;22.70;31.70;;;;;;5035816;28;20029;-64
2022/04/20 11:08:01;;;;;;;6.05;2.40;;;22.70;31.60;;;;;;5035395;28;20377;-64
2022/04/20 11:10:28;;;;;;;4.80;2.00;;;22.80;31.70;;;;;;5053480;28;20025;-65
2022/04/20 11:19:13;;;;;;;4.38;1.90;;;22.80;31.70;;;;;;5035461;28;20033;-64
2022/04/20 11:21:54;;;;;;;4.65;2.15;;;22.80;31.50;;;;;;5053462;28;20367;-64
2022/04/20 11:24:27;;;;;;;12.80;2.55;;;22.70;31.50;;;;;;5050689;28;20032;-64
2022/04/20 11:26:53;;;;;;;4.63;2.10;;;22.60;31.40;;;;;;5034913;28;20029;-64
2022/04/20 11:29:22;;;;;;;5.03;2.30;;;22.50;31.40;;;;;;5041394;28;20044;-64
2022/04/20 11:32:00;;;;;;;4.50;2.22;;;22.50;31.40;;;;;;5054905;28;20037;-64
2022/04/20 11:35:15;;;;;;;4.75;2.15;;;22.50;31.40;;;;;;5037658;28;20033;-64
2022/04/20 11:37:56;;;;;;;4.65;2.05;;;22.50;31.50;;;;;;5045150;28;20359;-63
2022/04/20 11:40:22;;;;;;;;;;;22.50;31.60;;;;;;5053224;28;20358;-64
2022/04/20 11:43:03;;;;;;;5.32;2.00;;;22.50;31.80;;;;;;5033962;28;19909;-63
2022/04/20 11:45:32;;;;;;;6.22;2.40;;;22.40;31.70;;;;;;5050885;28;20115;-64
2022/04/20 11:47:59;;;;;;;3.78;1.85;;;22.40;31.80;;;;;;5035612;28;20033;-64
2022/04/20 11:50:39;;;;;;;7.05;2.65;;;22.40;31.80;;;;;;5034417;28;20529;-64
2022/04/20 11:53:04;;;;;;;4.95;2.28;;;22.30;31.80;;;;;;5053707;28;20039;-64
2022/04/20 11:55:49;;;;;;;4.43;2.10;;;22.20;31.90;;;;;;5052835;28;20052;-64
2022/04/20 11:58:15;;;;;;;5.20;2.40;;;22.20;32.00;;;;;;5053951;28;20032;-63
2022/04/20 12:00:41;;;;;;;5.90;2.50;;;22.10;32.20;;;;;;5035218;28;20099;-63
2022/04/20 12:03:07;;;;;;;4.78;2.22;;;22.00;32.20;;;;;;5042968;28;20045;-64
2022/04/20 12:05:33;;;;;;;5.38;2.40;;;22.00;32.50;;;;;;5046548;28;20156;-64
2022/04/20 12:07:58;;;;;;;4.05;2.05;;;22.00;32.70;;;;;;5054106;28;20044;-64
2022/04/20 12:10:24;;;;;;;5.80;2.15;;;22.00;32.70;;;;;;5054429;28;20047;-64
2022/04/20 12:12:50;;;;;;;4.57;2.05;;;22.00;32.90;;;;;;5052829;28;20037;-62
2022/04/20 12:15:20;;;;;;;6.57;2.40;;;21.90;32.80;;;;;;5052926;28;20115;-62
2022/04/20 12:17:46;;;;;;;4.97;2.08;;;21.90;32.80;;;;;;5040483;28;20442;-62
2022/04/20 12:20:12;;;;;;;5.65;2.80;;;21.90;33.00;;;;;;5037537;28;20091;-62
2022/04/20 12:22:40;;;;;;;4.63;2.25;;;21.80;33.00;;;;;;5037286;28;20075;-62
2022/04/20 12:25:14;;;;;;;5.60;2.10;;;21.70;33.10;;;;;;5052303;28;20368;-62
2022/04/20 12:27:53;;;;;;;4.82;2.28;;;21.60;33.10;;;;;;5033197;28;20048;-62
2022/04/20 12:30:38;;;;;;;5.55;2.13;;;21.50;33.40;;;;;;5044059;28;20033;-61
2022/04/20 12:33:08;;;;;;;4.78;2.05;;;21.40;33.50;;;;;;5050785;28;20124;-62
2022/04/20 12:35:33;;;;;;;4.68;2.00;;;21.30;33.60;;;;;;5048943;28;20037;-64
2022/04/20 12:38:11;;;;;;;4.72;2.40;;;21.20;33.90;;;;;;5021049;28;20038;-64
2022/04/20 12:40:37;;;;;;;6.22;2.95;;;21.10;33.90;;;;;;5043627;28;20037;-64
2022/04/20 12:43:07;;;;;;;6.35;2.20;;;21.00;34.00;;;;;;5036645;28;20048;-64
2022/04/20 12:45:39;;;;;;;5.55;2.17;;;20.90;34.10;;;;;;5053106;28;20029;-64
2022/04/20 12:48:07;;;;;;;4.95;2.42;;;20.80;34.30;;;;;;5054498;28;20098;-64
2022/04/20 12:50:35;;;;;;;4.60;2.03;;;20.80;34.30;;;;;;5053320;28;20346;-64
2022/04/20 12:53:01;;;;;;;5.47;2.40;;;20.70;34.40;;;;;;5054232;28;20025;-64
2022/04/20 12:55:35;;;;;;;4.15;1.95;;;20.70;34.60;;;;;;5054496;28;20033;-62
2022/04/20 13:03:35;;;;;;;5.47;2.28;;;20.70;34.80;;;;;;5054553;28;20374;-64
2022/04/20 13:06:02;;;;;;;;;;;20.60;34.90;;;;;;5054742;28;20029;-64
2022/04/20 13:08:28;;;;;;;4.50;1.77;;;20.60;35.00;;;;;;5053764;28;19919;-64
2022/04/20 13:10:53;;;;;;;5.32;1.90;;;20.50;35.20;;;;;;5054260;28;20020;-64
2022/04/20 13:13:24;;;;;;;4.53;2.10;;;20.50;35.20;;;;;;5053066;28;20517;-64
2022/04/20 13:15:50;;;;;;;6.13;2.20;;;20.40;35.20;;;;;;5052993;28;20171;-64
2022/04/20 13:18:15;;;;;;;5.22;2.20;;;20.40;35.30;;;;;;5056493;28;20104;-64
2022/04/20 13:20:41;;;;;;;4.68;1.92;;;20.30;35.40;;;;;;5057466;28;20021;-64
2022/04/20 13:23:07;;;;;;;4.13;2.00;;;20.30;35.50;;;;;;5057395;28;20051;-64
2022/04/20 13:28:16;;;;;;;5.63;2.15;;;20.20;35.70;;;;;;5057540;28;20353;-64
2022/04/20 13:30:42;;;;;;;4.60;2.00;;;20.20;35.90;;;;;;5057385;28;20025;-64
2022/04/20 13:33:12;;;;;;;5.90;2.05;;;20.10;35.90;;;;;;5057213;28;20058;-64
2022/04/20 13:35:38;;;;;;;5.47;2.05;;;20.10;35.90;;;;;;5056361;28;20029;-64
2022/04/20 13:38:11;;;;;;;7.18;1.95;;;20.10;36.00;;;;;;5057464;28;20445;-64
2022/04/20 13:40:38;;;;;;;4.97;1.83;;;20.10;36.00;;;;;;5057285;28;20068;-64
2022/04/20 13:43:06;;;;;;;3.25;1.50;;;20.10;35.90;;;;;;5056991;28;20032;-65
2022/04/20 13:45:32;;;;;;;3.47;1.52;;;20.10;35.90;;;;;;5051439;28;20112;-64
2022/04/20 13:47:57;;;;;;;4.13;1.80;;;20.00;35.70;;;;;;5039700;28;20814;-64